sensor_id;sensor_type;location;lat;lon;timestamp;temperature;humidity
67093;SHT31;54011;50.772;7.730;2023-03-14T00:01:10;12.49;76.67
67093;SHT31;54011;50.772;7.730;2023-03-14T00:03:36;12.42;76.77
67093;SHT31;54011;50.772;7.730;2023-03-14T00:06:03;12.58;76.40
67093;SHT31;54011;50.772;7.730;2023-03-14T00:08:29;12.58;76.55
67093;SHT31;54011;50.772;7.730;2023-03-14T00:10:54;12.65;76.53
67093;SHT31;54011;50.772;7.730;2023-03-14T00:13:20;12.54;76.73
67093;SHT31;54011;50.772;7.730;2023-03-14T00:15:45;12.61;76.62
67093;SHT31;54011;50.772;7.730;2023-03-14T00:18:11;12.61;76.61
67093;SHT31;54011;50.772;7.730;2023-03-14T00:20:36;12.58;76.84
67093;SHT31;54011;50.772;7.730;2023-03-14T00:23:02;12.47;76.77
67093;SHT31;54011;50.772;7.730;2023-03-14T00:25:28;12.45;76.84
67093;SHT31;54011;50.772;7.730;2023-03-14T00:27:54;12.45;77.01
67093;SHT31;54011;50.772;7.730;2023-03-14T00:30:19;12.49;76.47
67093;SHT31;54011;50.772;7.730;2023-03-14T00:32:45;12.48;76.98
67093;SHT31;54011;50.772;7.730;2023-03-14T00:35:11;12.42;76.56
67093;SHT31;54011;50.772;7.730;2023-03-14T00:37:37;12.54;76.66
67093;SHT31;54011;50.772;7.730;2023-03-14T00:40:05;12.44;76.88
67093;SHT31;54011;50.772;7.730;2023-03-14T00:42:32;12.45;76.94
67093;SHT31;54011;50.772;7.730;2023-03-14T00:45:03;12.31;76.68
67093;SHT31;54011;50.772;7.730;2023-03-14T00:47:29;12.48;76.75
67093;SHT31;54011;50.772;7.730;2023-03-14T00:49:54;12.42;77.44
67093;SHT31;54011;50.772;7.730;2023-03-14T00:52:20;12.01;79.83
67093;SHT31;54011;50.772;7.730;2023-03-14T00:54:45;12.10;80.49
67093;SHT31;54011;50.772;7.730;2023-03-14T00:57:11;12.01;80.65
67093;SHT31;54011;50.772;7.730;2023-03-14T00:59:36;11.86;81.24
67093;SHT31;54011;50.772;7.730;2023-03-14T01:02:02;11.85;80.52
67093;SHT31;54011;50.772;7.730;2023-03-14T01:04:27;11.76;80.62
67093;SHT31;54011;50.772;7.730;2023-03-14T01:06:54;11.90;80.40
67093;SHT31;54011;50.772;7.730;2023-03-14T01:09:19;11.94;80.48
67093;SHT31;54011;50.772;7.730;2023-03-14T01:11:48;11.97;80.37
67093;SHT31;54011;50.772;7.730;2023-03-14T01:14:14;11.86;80.33
67093;SHT31;54011;50.772;7.730;2023-03-14T01:16:40;11.94;80.24
67093;SHT31;54011;50.772;7.730;2023-03-14T01:19:05;11.90;80.19
67093;SHT31;54011;50.772;7.730;2023-03-14T01:21:32;11.94;79.82
67093;SHT31;54011;50.772;7.730;2023-03-14T01:23:59;12.10;79.88
67093;SHT31;54011;50.772;7.730;2023-03-14T01:26:27;11.97;80.14
67093;SHT31;54011;50.772;7.730;2023-03-14T01:28:54;12.03;79.81
67093;SHT31;54011;50.772;7.730;2023-03-14T01:31:21;11.93;80.14
67093;SHT31;54011;50.772;7.730;2023-03-14T01:33:46;12.00;80.05
67093;SHT31;54011;50.772;7.730;2023-03-14T01:36:13;12.20;79.65
67093;SHT31;54011;50.772;7.730;2023-03-14T01:38:40;12.01;79.93
67093;SHT31;54011;50.772;7.730;2023-03-14T01:41:13;11.98;80.08
67093;SHT31;54011;50.772;7.730;2023-03-14T01:43:38;11.94;79.78
67093;SHT31;54011;50.772;7.730;2023-03-14T01:48:36;12.14;78.92
67093;SHT31;54011;50.772;7.730;2023-03-14T01:51:06;12.04;78.91
67093;SHT31;54011;50.772;7.730;2023-03-14T01:53:34;12.10;78.66
67093;SHT31;54011;50.772;7.730;2023-03-14T01:56:00;11.97;78.74
67093;SHT31;54011;50.772;7.730;2023-03-14T01:58:30;12.21;78.35
67093;SHT31;54011;50.772;7.730;2023-03-14T02:01:01;12.27;78.41
67093;SHT31;54011;50.772;7.730;2023-03-14T02:03:28;12.16;78.00
67093;SHT31;54011;50.772;7.730;2023-03-14T02:05:57;12.20;78.03
67093;SHT31;54011;50.772;7.730;2023-03-14T02:08:26;12.17;78.08
67093;SHT31;54011;50.772;7.730;2023-03-14T02:10:56;12.24;77.46
67093;SHT31;54011;50.772;7.730;2023-03-14T02:13:46;12.26;77.75
67093;SHT31;54011;50.772;7.730;2023-03-14T02:16:36;12.00;79.89
67093;SHT31;54011;50.772;7.730;2023-03-14T02:22:31;11.62;82.42
67093;SHT31;54011;50.772;7.730;2023-03-14T02:27:38;11.40;83.48
67093;SHT31;54011;50.772;7.730;2023-03-14T02:30:08;11.38;83.34
67093;SHT31;54011;50.772;7.730;2023-03-14T02:32:37;11.52;83.88
67093;SHT31;54011;50.772;7.730;2023-03-14T02:35:09;11.34;84.23
67093;SHT31;54011;50.772;7.730;2023-03-14T02:37:45;11.18;84.21
67093;SHT31;54011;50.772;7.730;2023-03-14T02:40:13;11.29;83.74
67093;SHT31;54011;50.772;7.730;2023-03-14T02:42:40;11.28;83.49
67093;SHT31;54011;50.772;7.730;2023-03-14T02:47:41;11.49;82.60
67093;SHT31;54011;50.772;7.730;2023-03-14T02:50:13;11.46;82.31
67093;SHT31;54011;50.772;7.730;2023-03-14T02:52:39;11.55;81.92
67093;SHT31;54011;50.772;7.730;2023-03-14T02:55:06;11.62;82.09
67093;SHT31;54011;50.772;7.730;2023-03-14T02:57:33;11.54;82.03
67093;SHT31;54011;50.772;7.730;2023-03-14T03:00:02;11.40;81.83
67093;SHT31;54011;50.772;7.730;2023-03-14T03:02:35;11.55;81.26
67093;SHT31;54011;50.772;7.730;2023-03-14T03:05:02;11.48;81.82
67093;SHT31;54011;50.772;7.730;2023-03-14T03:07:27;11.48;81.00
67093;SHT31;54011;50.772;7.730;2023-03-14T03:09:56;11.54;81.04
67093;SHT31;54011;50.772;7.730;2023-03-14T03:12:23;11.51;80.85
67093;SHT31;54011;50.772;7.730;2023-03-14T03:14:50;11.62;80.70
67093;SHT31;54011;50.772;7.730;2023-03-14T03:17:16;11.54;80.26
67093;SHT31;54011;50.772;7.730;2023-03-14T03:19:44;11.69;80.14
67093;SHT31;54011;50.772;7.730;2023-03-14T03:22:10;11.56;80.07
67093;SHT31;54011;50.772;7.730;2023-03-14T03:24:35;11.48;79.92
67093;SHT31;54011;50.772;7.730;2023-03-14T03:27:02;11.45;79.93
67093;SHT31;54011;50.772;7.730;2023-03-14T03:29:29;11.43;79.42
67093;SHT31;54011;50.772;7.730;2023-03-14T03:31:55;11.40;79.57
67093;SHT31;54011;50.772;7.730;2023-03-14T03:34:23;11.46;79.32
67093;SHT31;54011;50.772;7.730;2023-03-14T03:36:51;11.48;79.24
67093;SHT31;54011;50.772;7.730;2023-03-14T03:39:17;11.55;78.90
67093;SHT31;54011;50.772;7.730;2023-03-14T03:41:46;11.63;78.87
67093;SHT31;54011;50.772;7.730;2023-03-14T03:44:13;11.56;78.45
67093;SHT31;54011;50.772;7.730;2023-03-14T03:46:40;11.70;78.32
67093;SHT31;54011;50.772;7.730;2023-03-14T03:49:08;11.69;78.03
67093;SHT31;54011;50.772;7.730;2023-03-14T03:51:33;11.86;77.63
67093;SHT31;54011;50.772;7.730;2023-03-14T03:53:59;11.80;77.73
67093;SHT31;54011;50.772;7.730;2023-03-14T03:56:31;11.75;77.70
67093;SHT31;54011;50.772;7.730;2023-03-14T03:58:59;11.83;77.64
67093;SHT31;54011;50.772;7.730;2023-03-14T04:01:24;11.73;77.89
67093;SHT31;54011;50.772;7.730;2023-03-14T04:03:53;11.69;77.76
67093;SHT31;54011;50.772;7.730;2023-03-14T04:06:19;11.75;77.91
67093;SHT31;54011;50.772;7.730;2023-03-14T04:08:47;11.73;77.80
67093;SHT31;54011;50.772;7.730;2023-03-14T04:11:33;11.83;77.74
67093;SHT31;54011;50.772;7.730;2023-03-14T04:14:22;11.97;76.72
67093;SHT31;54011;50.772;7.730;2023-03-14T04:16:55;11.87;76.55
67093;SHT31;54011;50.772;7.730;2023-03-14T04:19:21;11.90;76.92
67093;SHT31;54011;50.772;7.730;2023-03-14T04:21:48;11.75;77.10
67093;SHT31;54011;50.772;7.730;2023-03-14T04:24:14;11.63;77.64
67093;SHT31;54011;50.772;7.730;2023-03-14T04:26:42;11.72;76.98
67093;SHT31;54011;50.772;7.730;2023-03-14T04:29:09;11.79;76.99
67093;SHT31;54011;50.772;7.730;2023-03-14T04:31:34;11.86;76.75
67093;SHT31;54011;50.772;7.730;2023-03-14T04:34:00;11.91;76.45
67093;SHT31;54011;50.772;7.730;2023-03-14T04:36:38;11.83;76.62
67093;SHT31;54011;50.772;7.730;2023-03-14T04:39:07;11.86;76.51
67093;SHT31;54011;50.772;7.730;2023-03-14T04:41:38;11.87;76.77
67093;SHT31;54011;50.772;7.730;2023-03-14T04:44:03;11.72;76.71
67093;SHT31;54011;50.772;7.730;2023-03-14T04:46:32;11.82;76.56
67093;SHT31;54011;50.772;7.730;2023-03-14T04:48:59;11.62;77.05
67093;SHT31;54011;50.772;7.730;2023-03-14T04:51:25;11.72;75.86
67093;SHT31;54011;50.772;7.730;2023-03-14T04:53:53;11.77;75.47
67093;SHT31;54011;50.772;7.730;2023-03-14T04:56:20;11.80;75.31
67093;SHT31;54011;50.772;7.730;2023-03-14T04:58:45;12.00;75.10
67093;SHT31;54011;50.772;7.730;2023-03-14T05:01:14;11.94;74.98
67093;SHT31;54011;50.772;7.730;2023-03-14T05:03:40;11.82;75.54
67093;SHT31;54011;50.772;7.730;2023-03-14T05:06:35;11.76;75.41
67093;SHT31;54011;50.772;7.730;2023-03-14T05:09:12;11.76;75.49
67093;SHT31;54011;50.772;7.730;2023-03-14T05:11:54;11.79;75.66
67093;SHT31;54011;50.772;7.730;2023-03-14T05:14:30;11.91;75.84
67093;SHT31;54011;50.772;7.730;2023-03-14T05:17:14;11.73;76.43
67093;SHT31;54011;50.772;7.730;2023-03-14T05:19:58;11.73;76.55
67093;SHT31;54011;50.772;7.730;2023-03-14T05:22:35;11.83;76.33
67093;SHT31;54011;50.772;7.730;2023-03-14T05:25:16;11.73;76.96
67093;SHT31;54011;50.772;7.730;2023-03-14T05:28:09;11.80;77.03
67093;SHT31;54011;50.772;7.730;2023-03-14T05:30:50;11.80;76.79
67093;SHT31;54011;50.772;7.730;2023-03-14T05:33:42;11.79;76.96
67093;SHT31;54011;50.772;7.730;2023-03-14T05:36:28;11.76;77.02
67093;SHT31;54011;50.772;7.730;2023-03-14T05:38:55;11.77;77.19
67093;SHT31;54011;50.772;7.730;2023-03-14T05:41:37;11.49;77.74
67093;SHT31;54011;50.772;7.730;2023-03-14T05:44:21;11.70;77.47
67093;SHT31;54011;50.772;7.730;2023-03-14T05:47:10;11.65;77.77
67093;SHT31;54011;50.772;7.730;2023-03-14T05:50:04;11.45;78.96
67093;SHT31;54011;50.772;7.730;2023-03-14T05:52:42;11.25;80.36
67093;SHT31;54011;50.772;7.730;2023-03-14T05:55:38;10.94;81.57
67093;SHT31;54011;50.772;7.730;2023-03-14T05:58:23;10.88;81.97
67093;SHT31;54011;50.772;7.730;2023-03-14T06:01:12;10.84;82.13
67093;SHT31;54011;50.772;7.730;2023-03-14T06:03:58;10.90;82.22
67093;SHT31;54011;50.772;7.730;2023-03-14T06:06:23;11.01;81.25
67093;SHT31;54011;50.772;7.730;2023-03-14T06:08:49;10.93;80.70
67093;SHT31;54011;50.772;7.730;2023-03-14T06:11:15;11.01;81.11
67093;SHT31;54011;50.772;7.730;2023-03-14T06:13:40;11.10;80.49
67093;SHT31;54011;50.772;7.730;2023-03-14T06:16:09;10.96;80.44
67093;SHT31;54011;50.772;7.730;2023-03-14T06:18:34;11.11;79.85
67093;SHT31;54011;50.772;7.730;2023-03-14T06:21:00;11.03;79.66
67093;SHT31;54011;50.772;7.730;2023-03-14T06:23:26;11.05;79.65
67093;SHT31;54011;50.772;7.730;2023-03-14T06:25:52;11.11;79.22
67093;SHT31;54011;50.772;7.730;2023-03-14T06:28:23;11.25;78.64
67093;SHT31;54011;50.772;7.730;2023-03-14T06:30:49;11.12;78.62
67093;SHT31;54011;50.772;7.730;2023-03-14T06:33:15;11.46;78.26
67093;SHT31;54011;50.772;7.730;2023-03-14T06:35:40;11.31;78.17
67093;SHT31;54011;50.772;7.730;2023-03-14T06:38:06;11.38;77.50
67093;SHT31;54011;50.772;7.730;2023-03-14T06:40:32;11.36;77.41
67093;SHT31;54011;50.772;7.730;2023-03-14T06:43:05;11.43;77.44
67093;SHT31;54011;50.772;7.730;2023-03-14T06:45:32;11.52;78.04
67093;SHT31;54011;50.772;7.730;2023-03-14T06:48:00;11.25;79.11
67093;SHT31;54011;50.772;7.730;2023-03-14T06:50:34;11.21;79.83
67093;SHT31;54011;50.772;7.730;2023-03-14T06:52:59;10.98;80.20
67093;SHT31;54011;50.772;7.730;2023-03-14T06:55:26;11.08;80.54
67093;SHT31;54011;50.772;7.730;2023-03-14T06:57:52;10.91;79.95
67093;SHT31;54011;50.772;7.730;2023-03-14T07:00:19;11.12;79.61
67093;SHT31;54011;50.772;7.730;2023-03-14T07:02:44;11.11;79.25
67093;SHT31;54011;50.772;7.730;2023-03-14T07:05:22;11.24;78.67
67093;SHT31;54011;50.772;7.730;2023-03-14T07:07:48;11.38;79.11
67093;SHT31;54011;50.772;7.730;2023-03-14T07:10:14;11.34;78.58
67093;SHT31;54011;50.772;7.730;2023-03-14T07:12:39;11.40;78.11
67093;SHT31;54011;50.772;7.730;2023-03-14T07:15:05;11.61;78.41
67093;SHT31;54011;50.772;7.730;2023-03-14T07:17:31;11.52;77.73
67093;SHT31;54011;50.772;7.730;2023-03-14T07:19:57;11.46;78.16
67093;SHT31;54011;50.772;7.730;2023-03-14T07:22:23;11.59;78.25
67093;SHT31;54011;50.772;7.730;2023-03-14T07:24:49;11.73;77.91
67093;SHT31;54011;50.772;7.730;2023-03-14T07:27:15;11.83;77.69
67093;SHT31;54011;50.772;7.730;2023-03-14T07:29:40;11.85;77.58
67093;SHT31;54011;50.772;7.730;2023-03-14T07:32:07;11.75;77.22
67093;SHT31;54011;50.772;7.730;2023-03-14T07:34:33;11.98;77.06
67093;SHT31;54011;50.772;7.730;2023-03-14T07:36:59;11.89;77.25
67093;SHT31;54011;50.772;7.730;2023-03-14T07:39:24;11.83;77.19
67093;SHT31;54011;50.772;7.730;2023-03-14T07:42:03;12.07;77.09
67093;SHT31;54011;50.772;7.730;2023-03-14T07:44:29;12.14;77.05
67093;SHT31;54011;50.772;7.730;2023-03-14T07:46:55;12.14;76.66
67093;SHT31;54011;50.772;7.730;2023-03-14T07:49:21;11.94;76.70
67093;SHT31;54011;50.772;7.730;2023-03-14T07:51:49;12.17;77.03
67093;SHT31;54011;50.772;7.730;2023-03-14T07:54:15;12.20;76.80
67093;SHT31;54011;50.772;7.730;2023-03-14T07:56:41;12.31;75.95
67093;SHT31;54011;50.772;7.730;2023-03-14T07:59:07;12.79;75.42
67093;SHT31;54011;50.772;7.730;2023-03-14T08:01:33;12.69;75.06
67093;SHT31;54011;50.772;7.730;2023-03-14T08:03:58;12.75;75.04
67093;SHT31;54011;50.772;7.730;2023-03-14T08:06:24;12.89;75.14
67093;SHT31;54011;50.772;7.730;2023-03-14T08:08:50;12.62;75.39
67093;SHT31;54011;50.772;7.730;2023-03-14T08:11:16;12.81;75.18
67093;SHT31;54011;50.772;7.730;2023-03-14T08:13:41;12.82;74.69
67093;SHT31;54011;50.772;7.730;2023-03-14T08:16:07;12.96;75.12
67093;SHT31;54011;50.772;7.730;2023-03-14T08:18:33;12.97;75.14
67093;SHT31;54011;50.772;7.730;2023-03-14T08:20:59;12.95;75.09
67093;SHT31;54011;50.772;7.730;2023-03-14T08:23:24;13.23;74.55
67093;SHT31;54011;50.772;7.730;2023-03-14T08:25:50;13.40;73.33
67093;SHT31;54011;50.772;7.730;2023-03-14T08:28:16;13.57;73.37
67093;SHT31;54011;50.772;7.730;2023-03-14T08:30:42;13.36;73.26
67093;SHT31;54011;50.772;7.730;2023-03-14T08:33:08;13.33;73.87
67093;SHT31;54011;50.772;7.730;2023-03-14T08:35:34;13.22;73.41
67093;SHT31;54011;50.772;7.730;2023-03-14T08:37:59;13.32;73.52
67093;SHT31;54011;50.772;7.730;2023-03-14T08:40:26;13.46;73.43
67093;SHT31;54011;50.772;7.730;2023-03-14T08:42:52;13.53;73.12
67093;SHT31;54011;50.772;7.730;2023-03-14T08:45:17;13.50;72.00
67093;SHT31;54011;50.772;7.730;2023-03-14T08:47:44;13.89;72.56
67093;SHT31;54011;50.772;7.730;2023-03-14T08:50:11;14.16;71.35
67093;SHT31;54011;50.772;7.730;2023-03-14T08:52:38;13.77;71.45
67093;SHT31;54011;50.772;7.730;2023-03-14T08:55:06;13.54;71.94
67093;SHT31;54011;50.772;7.730;2023-03-14T08:57:32;14.18;71.24
67093;SHT31;54011;50.772;7.730;2023-03-14T08:59:58;14.37;71.24
67093;SHT31;54011;50.772;7.730;2023-03-14T09:02:24;14.50;70.49
67093;SHT31;54011;50.772;7.730;2023-03-14T09:04:51;13.95;72.12
67093;SHT31;54011;50.772;7.730;2023-03-14T09:07:17;14.05;71.68
67093;SHT31;54011;50.772;7.730;2023-03-14T09:09:44;14.21;71.21
67093;SHT31;54011;50.772;7.730;2023-03-14T09:12:09;14.18;70.89
67093;SHT31;54011;50.772;7.730;2023-03-14T09:14:35;14.02;72.33
67093;SHT31;54011;50.772;7.730;2023-03-14T09:17:00;13.89;72.92
67093;SHT31;54011;50.772;7.730;2023-03-14T09:19:26;13.65;72.97
67093;SHT31;54011;50.772;7.730;2023-03-14T09:21:51;13.84;73.14
67093;SHT31;54011;50.772;7.730;2023-03-14T09:24:17;13.65;74.32
67093;SHT31;54011;50.772;7.730;2023-03-14T09:26:43;13.77;73.71
67093;SHT31;54011;50.772;7.730;2023-03-14T09:29:08;13.53;74.01
67093;SHT31;54011;50.772;7.730;2023-03-14T09:31:34;13.39;74.37
67093;SHT31;54011;50.772;7.730;2023-03-14T09:34:00;13.57;74.90
67093;SHT31;54011;50.772;7.730;2023-03-14T09:36:27;13.16;75.91
67093;SHT31;54011;50.772;7.730;2023-03-14T09:38:53;13.61;76.71
67093;SHT31;54011;50.772;7.730;2023-03-14T09:41:25;13.30;75.03
67093;SHT31;54011;50.772;7.730;2023-03-14T09:44:01;13.46;75.53
67093;SHT31;54011;50.772;7.730;2023-03-14T09:46:29;13.53;74.19
67093;SHT31;54011;50.772;7.730;2023-03-14T09:48:54;13.63;74.60
67093;SHT31;54011;50.772;7.730;2023-03-14T09:51:20;13.53;74.94
67093;SHT31;54011;50.772;7.730;2023-03-14T09:53:49;13.30;77.54
67093;SHT31;54011;50.772;7.730;2023-03-14T09:56:31;12.93;79.64
67093;SHT31;54011;50.772;7.730;2023-03-14T09:59:03;12.49;81.99
67093;SHT31;54011;50.772;7.730;2023-03-14T10:01:31;12.45;81.20
67093;SHT31;54011;50.772;7.730;2023-03-14T10:04:01;12.58;81.61
67093;SHT31;54011;50.772;7.730;2023-03-14T10:06:29;12.51;81.83
67093;SHT31;54011;50.772;7.730;2023-03-14T10:08:55;12.17;82.39
67093;SHT31;54011;50.772;7.730;2023-03-14T10:11:23;12.06;83.38
67093;SHT31;54011;50.772;7.730;2023-03-14T10:14:07;11.82;84.09
67093;SHT31;54011;50.772;7.730;2023-03-14T10:16:44;11.89;84.13
67093;SHT31;54011;50.772;7.730;2023-03-14T10:19:14;11.93;85.77
67093;SHT31;54011;50.772;7.730;2023-03-14T10:21:43;11.83;85.92
67093;SHT31;54011;50.772;7.730;2023-03-14T10:26:47;11.75;85.23
67093;SHT31;54011;50.772;7.730;2023-03-14T10:29:13;11.93;85.07
67093;SHT31;54011;50.772;7.730;2023-03-14T10:31:53;11.67;84.42
67093;SHT31;54011;50.772;7.730;2023-03-14T10:34:25;11.70;84.19
67093;SHT31;54011;50.772;7.730;2023-03-14T10:36:53;11.45;83.82
67093;SHT31;54011;50.772;7.730;2023-03-14T10:39:28;11.01;84.94
67093;SHT31;54011;50.772;7.730;2023-03-14T10:42:18;9.81;89.89
67093;SHT31;54011;50.772;7.730;2023-03-14T10:44:44;9.73;91.62
67093;SHT31;54011;50.772;7.730;2023-03-14T10:47:19;9.58;91.32
67093;SHT31;54011;50.772;7.730;2023-03-14T10:49:48;9.44;90.66
67093;SHT31;54011;50.772;7.730;2023-03-14T10:52:20;9.28;89.68
67093;SHT31;54011;50.772;7.730;2023-03-14T10:54:53;9.68;86.54
67093;SHT31;54011;50.772;7.730;2023-03-14T10:57:20;9.75;85.81
67093;SHT31;54011;50.772;7.730;2023-03-14T10:59:46;9.54;85.80
67093;SHT31;54011;50.772;7.730;2023-03-14T11:02:33;9.64;86.26
67093;SHT31;54011;50.772;7.730;2023-03-14T11:07:42;10.01;85.22
67093;SHT31;54011;50.772;7.730;2023-03-14T11:13:07;9.78;85.52
67093;SHT31;54011;50.772;7.730;2023-03-14T11:16:04;9.44;86.02
67093;SHT31;54011;50.772;7.730;2023-03-14T11:19:11;9.20;86.36
67093;SHT31;54011;50.772;7.730;2023-03-14T11:21:59;9.37;86.57
67093;SHT31;54011;50.772;7.730;2023-03-14T11:24:36;9.17;86.29
67093;SHT31;54011;50.772;7.730;2023-03-14T11:27:25;9.03;86.58
67093;SHT31;54011;50.772;7.730;2023-03-14T11:29:58;9.17;86.77
67093;SHT31;54011;50.772;7.730;2023-03-14T11:32:51;9.03;87.18
67093;SHT31;54011;50.772;7.730;2023-03-14T11:35:26;8.90;87.20
67093;SHT31;54011;50.772;7.730;2023-03-14T11:38:14;8.68;87.64
67093;SHT31;54011;50.772;7.730;2023-03-14T11:40:43;8.82;87.82
67093;SHT31;54011;50.772;7.730;2023-03-14T11:43:30;9.02;87.12
67093;SHT31;54011;50.772;7.730;2023-03-14T11:46:27;8.80;87.06
67093;SHT31;54011;50.772;7.730;2023-03-14T11:51:49;8.80;86.68
67093;SHT31;54011;50.772;7.730;2023-03-14T11:54:22;8.88;86.58
67093;SHT31;54011;50.772;7.730;2023-03-14T11:56:55;9.12;86.18
67093;SHT31;54011;50.772;7.730;2023-03-14T11:59:27;8.97;86.64
67093;SHT31;54011;50.772;7.730;2023-03-14T12:02:03;8.95;86.81
67093;SHT31;54011;50.772;7.730;2023-03-14T12:07:19;9.07;86.15
67093;SHT31;54011;50.772;7.730;2023-03-14T12:09:48;9.20;86.17
67093;SHT31;54011;50.772;7.730;2023-03-14T12:12:20;9.44;84.81
67093;SHT31;54011;50.772;7.730;2023-03-14T12:14:58;9.37;84.75
67093;SHT31;54011;50.772;7.730;2023-03-14T12:17:35;9.85;83.67
67093;SHT31;54011;50.772;7.730;2023-03-14T12:22:46;10.01;82.21
67093;SHT31;54011;50.772;7.730;2023-03-14T12:25:42;10.20;81.83
67093;SHT31;54011;50.772;7.730;2023-03-14T12:28:22;9.92;81.45
67093;SHT31;54011;50.772;7.730;2023-03-14T12:30:55;10.35;81.75
67093;SHT31;54011;50.772;7.730;2023-03-14T12:33:30;9.91;82.68
67093;SHT31;54011;50.772;7.730;2023-03-14T12:36:01;9.64;83.50
67093;SHT31;54011;50.772;7.730;2023-03-14T12:43:50;9.17;85.46
67093;SHT31;54011;50.772;7.730;2023-03-14T12:46:26;8.92;84.83
67093;SHT31;54011;50.772;7.730;2023-03-14T12:51:33;8.59;85.10
67093;SHT31;54011;50.772;7.730;2023-03-14T12:55:17;8.30;85.52
67093;SHT31;54011;50.772;7.730;2023-03-14T13:00:22;8.26;85.58
67093;SHT31;54011;50.772;7.730;2023-03-14T13:02:50;8.17;86.35
67093;SHT31;54011;50.772;7.730;2023-03-14T13:05:19;8.57;85.12
67093;SHT31;54011;50.772;7.730;2023-03-14T13:12:56;8.58;84.99
67093;SHT31;54011;50.772;7.730;2023-03-14T13:15:34;8.59;85.73
67093;SHT31;54011;50.772;7.730;2023-03-14T13:18:12;8.49;86.38
67093;SHT31;54011;50.772;7.730;2023-03-14T13:20:44;8.40;84.89
67093;SHT31;54011;50.772;7.730;2023-03-14T13:23:25;8.47;84.89
67093;SHT31;54011;50.772;7.730;2023-03-14T13:25:51;8.65;84.98
67093;SHT31;54011;50.772;7.730;2023-03-14T13:28:18;8.45;85.16
67093;SHT31;54011;50.772;7.730;2023-03-14T13:30:48;8.11;83.39
67093;SHT31;54011;50.772;7.730;2023-03-14T13:33:17;8.23;84.38
67093;SHT31;54011;50.772;7.730;2023-03-14T13:35:55;8.54;83.26
67093;SHT31;54011;50.772;7.730;2023-03-14T13:38:23;8.37;82.80
67093;SHT31;54011;50.772;7.730;2023-03-14T13:40:54;8.51;83.68
67093;SHT31;54011;50.772;7.730;2023-03-14T13:43:30;8.30;82.92
67093;SHT31;54011;50.772;7.730;2023-03-14T13:48:25;8.17;82.63
67093;SHT31;54011;50.772;7.730;2023-03-14T13:51:16;8.10;82.01
67093;SHT31;54011;50.772;7.730;2023-03-14T13:53:49;8.14;83.74
67093;SHT31;54011;50.772;7.730;2023-03-14T13:56:16;7.83;82.89
67093;SHT31;54011;50.772;7.730;2023-03-14T13:58:43;7.69;82.73
67093;SHT31;54011;50.772;7.730;2023-03-14T14:01:38;7.62;83.80
67093;SHT31;54011;50.772;7.730;2023-03-14T14:04:09;7.76;83.31
67093;SHT31;54011;50.772;7.730;2023-03-14T14:07:05;7.66;82.30
67093;SHT31;54011;50.772;7.730;2023-03-14T14:09:37;7.85;82.11
67093;SHT31;54011;50.772;7.730;2023-03-14T14:12:05;7.83;82.22
67093;SHT31;54011;50.772;7.730;2023-03-14T14:14:40;7.94;82.43
67093;SHT31;54011;50.772;7.730;2023-03-14T14:17:10;8.28;82.09
67093;SHT31;54011;50.772;7.730;2023-03-14T14:19:36;8.41;82.55
67093;SHT31;54011;50.772;7.730;2023-03-14T14:22:03;8.72;80.56
67093;SHT31;54011;50.772;7.730;2023-03-14T14:24:30;9.48;79.26
67093;SHT31;54011;50.772;7.730;2023-03-14T14:32:45;8.78;81.15
67093;SHT31;54011;50.772;7.730;2023-03-14T14:35:30;8.58;78.77
67093;SHT31;54011;50.772;7.730;2023-03-14T14:37:57;8.34;81.50
67093;SHT31;54011;50.772;7.730;2023-03-14T14:40:28;8.62;80.00
67093;SHT31;54011;50.772;7.730;2023-03-14T14:42:55;8.48;80.71
67093;SHT31;54011;50.772;7.730;2023-03-14T14:45:27;8.49;80.47
67093;SHT31;54011;50.772;7.730;2023-03-14T14:50:39;8.48;82.40
67093;SHT31;54011;50.772;7.730;2023-03-14T14:56:26;7.46;84.10
67093;SHT31;54011;50.772;7.730;2023-03-14T14:59:00;7.61;82.78
67093;SHT31;54011;50.772;7.730;2023-03-14T15:01:38;7.45;83.27
67093;SHT31;54011;50.772;7.730;2023-03-14T15:04:13;8.04;83.74
67093;SHT31;54011;50.772;7.730;2023-03-14T15:06:45;8.06;81.53
67093;SHT31;54011;50.772;7.730;2023-03-14T15:09:11;8.14;82.02
67093;SHT31;54011;50.772;7.730;2023-03-14T15:11:37;8.14;81.63
67093;SHT31;54011;50.772;7.730;2023-03-14T15:14:03;7.85;79.99
67093;SHT31;54011;50.772;7.730;2023-03-14T15:16:31;7.36;80.96
67093;SHT31;54011;50.772;7.730;2023-03-14T15:18:59;7.61;80.58
67093;SHT31;54011;50.772;7.730;2023-03-14T15:21:29;7.80;80.25
67093;SHT31;54011;50.772;7.730;2023-03-14T15:23:55;7.73;80.24
67093;SHT31;54011;50.772;7.730;2023-03-14T15:26:24;8.04;79.78
67093;SHT31;54011;50.772;7.730;2023-03-14T15:28:51;8.07;82.21
67093;SHT31;54011;50.772;7.730;2023-03-14T15:31:18;8.06;80.45
67093;SHT31;54011;50.772;7.730;2023-03-14T15:33:45;7.91;79.21
67093;SHT31;54011;50.772;7.730;2023-03-14T15:36:26;7.73;78.79
67093;SHT31;54011;50.772;7.730;2023-03-14T15:38:55;7.73;79.64
67093;SHT31;54011;50.772;7.730;2023-03-14T15:41:21;7.94;79.55
67093;SHT31;54011;50.772;7.730;2023-03-14T15:43:47;7.82;79.41
67093;SHT31;54011;50.772;7.730;2023-03-14T15:46:13;8.00;78.75
67093;SHT31;54011;50.772;7.730;2023-03-14T15:48:40;7.35;76.69
67093;SHT31;54011;50.772;7.730;2023-03-14T15:51:05;7.76;76.54
67093;SHT31;54011;50.772;7.730;2023-03-14T15:53:32;7.75;76.16
67093;SHT31;54011;50.772;7.730;2023-03-14T15:55:58;7.66;75.97
67093;SHT31;54011;50.772;7.730;2023-03-14T15:58:23;7.35;74.40
67093;SHT31;54011;50.772;7.730;2023-03-14T16:00:50;7.72;76.36
67093;SHT31;54011;50.772;7.730;2023-03-14T16:03:16;7.32;74.94
67093;SHT31;54011;50.772;7.730;2023-03-14T16:05:42;7.26;74.27
67093;SHT31;54011;50.772;7.730;2023-03-14T16:08:08;7.28;74.33
67093;SHT31;54011;50.772;7.730;2023-03-14T16:10:33;7.41;75.08
67093;SHT31;54011;50.772;7.730;2023-03-14T16:13:00;7.46;75.31
67093;SHT31;54011;50.772;7.730;2023-03-14T16:15:26;7.31;74.90
67093;SHT31;54011;50.772;7.730;2023-03-14T16:17:55;7.35;75.90
67093;SHT31;54011;50.772;7.730;2023-03-14T16:20:23;7.32;75.20
67093;SHT31;54011;50.772;7.730;2023-03-14T16:22:50;7.38;75.02
67093;SHT31;54011;50.772;7.730;2023-03-14T16:25:17;7.54;74.65
67093;SHT31;54011;50.772;7.730;2023-03-14T16:27:47;7.52;75.84
67093;SHT31;54011;50.772;7.730;2023-03-14T16:30:15;7.49;75.68
67093;SHT31;54011;50.772;7.730;2023-03-14T16:32:40;7.51;76.42
67093;SHT31;54011;50.772;7.730;2023-03-14T16:35:07;7.55;76.33
67093;SHT31;54011;50.772;7.730;2023-03-14T16:37:33;7.45;76.49
67093;SHT31;54011;50.772;7.730;2023-03-14T16:39:59;7.44;75.90
67093;SHT31;54011;50.772;7.730;2023-03-14T16:42:24;7.44;76.00
67093;SHT31;54011;50.772;7.730;2023-03-14T16:44:50;7.28;76.61
67093;SHT31;54011;50.772;7.730;2023-03-14T16:47:15;7.24;76.57
67093;SHT31;54011;50.772;7.730;2023-03-14T16:49:40;7.21;76.64
67093;SHT31;54011;50.772;7.730;2023-03-14T16:52:06;7.28;77.13